ENHV

Valan Airport

Honningsvåg, Norway
METAR ENHV 182150Z 19010G20KT 150V250 9999 SCT014 BKN020 M05/M09 Q1009
Observed Flight Rules
Jan-18 @ 21:50 UTC (6 hours ago) Marginal Visual Flight Rules
Wind Visibility Clouds
190° at 10 knots
 Gusting to 20 knots
10,000+ meters
  • Scattered at 1,400' AGL
  • Broken at 2,000' AGL
Temperatures Readings
Current -5°C / 23°F
Dewpoint -9°C / 16°F
Humidity 74%
Altimeter 29.79" Hg
Pressure 1009 hPa
Elevation 14
METAR ENHV 182150Z 19010G20KT 150V250 9999 SCT014 BKN020 M05/M09 Q1009
Observed Flight Rules
Jan-18 @ 21:50 UTC
(6 hours ago)
MVFR
Wind Visibility
190° at 10 knots
 Gusting to 20 knots
10,000+ meters
Clouds
  • Scattered at 1,400' AGL
  • Broken at 2,000' AGL
Temperature Dewpoint
-5°C / 23°F -9°C / 16°F
Humidity Altimeter Pressure
74% 29.79" Hg 1009 hPa